Time;durP1;ratioP1;P1;durP2;ratioP2;P2;SDS_P1;SDS_P2;PMS_P1;PMS_P2;Temp;Humidity;BMP_temperature;BMP_pressure;BME280_temperature;BME280_humidity;BME280_pressure;Samples;Min_cycle;Max_cycle;Signal;HPM_P1;HPM_P2
2022/02/06 00:02:23;;;;;;;4.32;2.33;;;7.70;99.90;;;;;;5068910;28;20303;-63
2022/02/06 00:04:52;;;;;;;4.10;2.38;;;7.60;99.90;;;;;;5068258;28;20278;-63
2022/02/06 00:07:19;;;;;;;6.28;3.20;;;7.50;99.90;;;;;;5069075;28;20228;-63
2022/02/06 00:09:46;;;;;;;8.10;2.63;;;7.50;99.90;;;;;;5052084;28;20234;-63
2022/02/06 00:12:13;;;;;;;5.95;3.17;;;7.40;99.90;;;;;;5049043;28;20789;-63
2022/02/06 00:14:40;;;;;;;7.45;6.65;;;7.40;99.90;;;;;;5048082;28;20233;-63
2022/02/06 00:17:08;;;;;;;5.00;2.75;;;7.40;99.90;;;;;;5049250;28;20235;-63
2022/02/06 00:19:34;;;;;;;5.55;2.90;;;7.40;99.90;;;;;;5063146;28;20614;-63
2022/02/06 00:22:10;;;;;;;3.80;2.80;;;7.50;99.90;;;;;;5048639;28;20224;-63
2022/02/06 00:24:43;;;;;;;5.30;2.40;;;7.50;99.90;;;;;;5058088;28;20224;-62
2022/02/06 00:27:15;;;;;;;6.22;3.33;;;7.50;99.90;;;;;;5055157;28;20224;-62
2022/02/06 00:29:52;;;;;;;2.40;2.20;;;7.50;99.90;;;;;;5054881;28;20305;-62
2022/02/06 00:32:30;;;;;;;4.22;2.97;;;7.50;99.90;;;;;;5055247;28;20640;-62
2022/02/06 00:35:28;;;;;;;8.02;3.05;;;7.50;99.90;;;;;;5046542;28;20218;-63
2022/02/06 00:38:11;;;;;;;4.30;2.00;;;7.60;99.90;;;;;;5044396;28;20253;-62
2022/02/06 00:43:28;;;;;;;3.38;1.90;;;7.70;99.90;;;;;;5039184;28;20213;-61
2022/02/06 00:45:55;;;;;;;8.60;2.90;;;7.60;99.90;;;;;;5055205;28;20221;-62
2022/02/06 00:48:25;;;;;;;3.30;2.60;;;7.70;99.90;;;;;;5054702;28;20232;-61
2022/02/06 00:51:02;;;;;;;5.28;2.85;;;7.70;99.90;;;;;;5050773;28;20226;-63
2022/02/06 00:53:31;;;;;;;4.70;3.58;;;7.70;99.90;;;;;;5037120;28;20229;-63
2022/02/06 00:55:58;;;;;;;2.33;2.05;;;7.80;99.90;;;;;;5035155;28;20226;-63
2022/02/06 00:58:25;;;;;;;4.65;2.13;;;7.90;99.90;;;;;;5041101;28;20224;-63
2022/02/06 01:00:52;;;;;;;3.35;2.58;;;7.90;99.90;;;;;;5054367;28;20375;-63
2022/02/06 01:03:18;;;;;;;3.50;1.90;;;7.90;99.90;;;;;;5051665;28;20300;-61
2022/02/06 01:05:45;;;;;;;2.28;2.08;;;7.90;99.90;;;;;;5047640;28;20244;-63
2022/02/06 01:08:12;;;;;;;6.22;2.90;;;7.90;99.90;;;;;;5054392;28;20544;-62
2022/02/06 01:10:40;;;;;;;9.63;6.10;;;8.00;99.90;;;;;;5054663;28;20699;-62
2022/02/06 01:13:17;;;;;;;3.90;2.15;;;8.00;99.90;;;;;;5045032;28;20225;-62
2022/02/06 01:15:51;;;;;;;2.75;2.30;;;8.00;99.90;;;;;;5048764;28;20261;-62
2022/02/06 01:18:24;;;;;;;2.45;1.65;;;8.00;99.90;;;;;;5053002;28;20563;-62
2022/02/06 01:21:02;;;;;;;5.90;3.83;;;8.00;99.70;;;;;;5071177;28;20667;-62
2022/02/06 01:23:33;;;;;;;7.10;5.80;;;8.00;99.70;;;;;;5054218;28;20249;-62
2022/02/06 01:26:05;;;;;;;8.68;5.47;;;8.10;99.80;;;;;;5054339;28;20244;-62
2022/02/06 01:28:37;;;;;;;8.20;6.65;;;8.10;99.70;;;;;;5054149;28;20214;-62
2022/02/06 01:31:18;;;;;;;4.22;2.83;;;8.10;99.60;;;;;;5037289;28;20229;-62
2022/02/06 01:33:49;;;;;;;3.55;2.45;;;8.00;99.50;;;;;;5034776;28;20225;-62
2022/02/06 01:36:25;;;;;;;3.50;2.20;;;8.10;99.50;;;;;;5033153;28;21018;-62
2022/02/06 01:39:07;;;;;;;2.85;1.80;;;8.20;99.50;;;;;;5047216;28;20304;-61
2022/02/06 01:41:41;;;;;;;2.45;2.25;;;8.20;99.40;;;;;;5054119;28;20700;-62
2022/02/06 01:44:23;;;;;;;2.90;2.08;;;8.20;99.40;;;;;;5053605;28;20570;-61
2022/02/06 01:57:08;;;;;;;6.60;3.47;;;8.20;99.50;;;;;;5047706;28;20283;-63
2022/02/06 02:00:59;;;;;;;3.67;2.28;;;8.20;99.70;;;;;;5053680;28;20258;-62
2022/02/06 02:03:39;;;;;;;3.78;2.08;;;8.20;99.90;;;;;;5053767;28;20754;-62
2022/02/06 02:06:45;;;;;;;5.20;3.20;;;8.20;99.90;;;;;;5053666;28;20221;-62
2022/02/06 02:09:35;;;;;;;4.22;2.28;;;8.20;99.90;;;;;;5053567;28;20216;-62
2022/02/06 02:12:27;;;;;;;3.65;1.88;;;8.30;99.90;;;;;;5053486;28;20231;-62
2022/02/06 02:18:08;;;;;;;4.88;2.20;;;8.20;99.90;;;;;;5026095;28;20348;-62
2022/02/06 02:20:54;;;;;;;5.80;2.42;;;8.30;99.90;;;;;;5049981;28;20221;-62
2022/02/06 02:26:38;;;;;;;8.10;1.50;;;8.20;99.90;;;;;;5033276;28;20213;-62
2022/02/06 02:29:40;;;;;;;4.60;1.60;;;8.30;99.90;;;;;;5035177;28;20229;-63
2022/02/06 02:46:09;;;;;;;3.95;1.80;;;8.10;99.90;;;;;;5051220;28;20252;-62
2022/02/06 02:48:38;;;;;;;2.78;1.95;;;8.10;99.90;;;;;;5072597;28;20592;-62
2022/02/06 02:51:07;;;;;;;4.47;2.47;;;8.10;99.90;;;;;;5072095;28;20226;-62
2022/02/06 02:53:40;;;;;;;4.53;2.20;;;8.00;99.90;;;;;;5068614;28;20359;-62
2022/02/06 02:56:22;;;;;;;2.80;2.40;;;8.00;99.90;;;;;;5052377;28;20727;-62
2022/02/06 02:58:53;;;;;;;2.35;2.15;;;8.00;99.90;;;;;;5062643;28;20234;-62
2022/02/06 03:01:27;;;;;;;4.90;1.88;;;8.10;99.90;;;;;;5072117;28;21051;-62
2022/02/06 03:03:54;;;;;;;6.55;3.20;;;8.00;99.90;;;;;;5058298;28;20559;-62
2022/02/06 03:06:21;;;;;;;3.13;2.08;;;8.00;99.90;;;;;;5056021;28;20243;-62
2022/02/06 03:08:51;;;;;;;7.05;3.92;;;7.90;99.90;;;;;;5070899;28;20258;-63
2022/02/06 03:11:18;;;;;;;3.95;2.13;;;7.90;99.90;;;;;;5071092;28;20330;-63
2022/02/06 03:13:52;;;;;;;5.22;1.60;;;7.90;99.90;;;;;;5072280;28;20228;-62
2022/02/06 03:16:25;;;;;;;3.83;1.58;;;7.90;99.90;;;;;;5072022;28;20236;-62
2022/02/06 03:19:04;;;;;;;2.72;1.55;;;7.90;99.90;;;;;;5072191;28;20224;-62
2022/02/06 03:21:32;;;;;;;4.22;3.05;;;7.90;99.90;;;;;;5062970;28;20305;-62
2022/02/06 03:24:18;;;;;;;2.63;1.90;;;7.70;99.90;;;;;;5067375;28;20216;-62
2022/02/06 03:26:45;;;;;;;2.30;2.10;;;7.70;99.90;;;;;;5052630;28;20309;-62
2022/02/06 03:29:12;;;;;;;4.30;2.00;;;7.70;99.90;;;;;;5071719;28;20674;-62
2022/02/06 03:31:39;;;;;;;2.42;1.70;;;7.60;99.90;;;;;;5072243;28;20609;-62
2022/02/06 03:34:06;;;;;;;4.30;1.70;;;7.60;99.90;;;;;;5071516;28;20686;-62
2022/02/06 03:36:33;;;;;;;2.15;1.95;;;7.50;99.90;;;;;;5070987;28;20224;-62
2022/02/06 03:39:04;;;;;;;3.63;1.95;;;7.60;99.90;;;;;;5071116;28;20220;-62
2022/02/06 03:41:40;;;;;;;4.38;3.10;;;7.60;99.90;;;;;;5071945;28;20307;-62
2022/02/06 03:44:18;;;;;;;3.20;2.45;;;7.60;99.90;;;;;;5040218;28;20225;-62
2022/02/06 03:47:01;;;;;;;3.78;1.92;;;7.70;99.90;;;;;;5051982;28;20247;-62
2022/02/06 03:49:35;;;;;;;2.42;1.67;;;7.70;99.90;;;;;;5052355;28;20228;-63
2022/02/06 03:52:02;;;;;;;4.82;2.00;;;7.70;99.90;;;;;;5046510;28;20923;-63
2022/02/06 03:54:30;;;;;;;6.55;2.53;;;7.70;99.90;;;;;;5044732;28;20226;-63
2022/02/06 03:56:59;;;;;;;3.75;1.95;;;7.70;99.90;;;;;;5051494;28;20232;-63
2022/02/06 03:59:26;;;;;;;4.03;1.92;;;7.70;99.90;;;;;;5052699;28;20315;-63
2022/02/06 04:01:52;;;;;;;3.78;2.33;;;7.70;99.90;;;;;;5042162;28;20237;-63
2022/02/06 04:04:19;;;;;;;3.85;1.83;;;7.70;99.90;;;;;;5048557;28;20221;-63
2022/02/06 04:06:46;;;;;;;2.15;1.83;;;7.70;99.90;;;;;;5055480;28;20222;-63
2022/02/06 04:09:18;;;;;;;3.83;1.95;;;7.70;99.90;;;;;;5055692;28;20228;-63
2022/02/06 04:11:50;;;;;;;2.75;1.88;;;7.60;99.90;;;;;;5044821;28;20481;-63
2022/02/06 04:14:27;;;;;;;5.30;2.30;;;7.50;99.90;;;;;;5053000;28;20221;-64
2022/02/06 04:16:56;;;;;;;7.47;1.95;;;7.50;99.90;;;;;;5055096;28;20667;-63
2022/02/06 04:19:25;;;;;;;3.30;1.70;;;7.50;99.90;;;;;;5055415;28;20259;-63
2022/02/06 04:21:53;;;;;;;4.60;2.47;;;7.50;99.90;;;;;;5054925;28;20315;-63
2022/02/06 04:24:20;;;;;;;2.45;1.80;;;7.60;99.90;;;;;;5055541;28;20217;-63
2022/02/06 04:26:50;;;;;;;2.60;2.40;;;7.50;99.90;;;;;;5054958;28;20683;-62
2022/02/06 04:29:17;;;;;;;5.50;2.53;;;7.50;99.90;;;;;;5055421;28;20729;-62
2022/02/06 04:31:45;;;;;;;3.13;1.92;;;7.60;99.90;;;;;;5054750;28;20225;-62
2022/02/06 04:34:14;;;;;;;1.90;1.75;;;7.60;99.90;;;;;;5055137;28;20232;-62
2022/02/06 04:36:48;;;;;;;2.80;2.30;;;7.60;99.90;;;;;;5052757;28;20225;-61
2022/02/06 04:39:36;;;;;;;8.88;2.20;;;7.60;99.90;;;;;;5045043;28;20221;-62
2022/02/06 04:42:15;;;;;;;6.15;2.45;;;7.60;99.90;;;;;;5054757;28;20252;-62
2022/02/06 04:45:08;;;;;;;7.22;2.63;;;7.60;99.90;;;;;;5054460;28;20608;-62
2022/02/06 04:48:03;;;;;;;3.25;2.58;;;7.70;99.90;;;;;;5055038;28;20298;-61
2022/02/06 05:15:27;;;;;;;4.72;2.00;;;7.60;99.90;;;;;;5012574;28;20811;-63
2022/02/06 05:21:03;;;;;;;6.10;2.90;;;7.60;99.90;;;;;;5036311;28;20259;-62
2022/02/06 05:26:45;;;;;;;3.80;2.40;;;7.60;99.90;;;;;;5034996;28;20221;-62
2022/02/06 05:29:24;;;;;;;2.65;2.42;;;7.50;99.90;;;;;;5054170;28;20221;-62
2022/02/06 05:32:12;;;;;;;3.75;2.30;;;7.40;99.90;;;;;;5054381;28;20305;-63
2022/02/06 05:34:39;;;;;;;4.63;1.98;;;7.50;99.90;;;;;;5042410;28;20596;-63
2022/02/06 05:37:09;;;;;;;2.83;2.60;;;7.50;99.90;;;;;;5053575;28;20221;-63
2022/02/06 05:39:35;;;;;;;5.75;2.22;;;7.50;99.90;;;;;;5042835;28;20683;-63
2022/02/06 05:42:03;;;;;;;4.88;2.28;;;7.50;99.90;;;;;;5054001;28;20221;-63
2022/02/06 05:44:30;;;;;;;4.25;2.38;;;7.60;99.90;;;;;;5053812;28;20248;-62
2022/02/06 05:46:58;;;;;;;3.70;1.80;;;7.60;99.90;;;;;;5053461;28;20243;-63
2022/02/06 05:49:25;;;;;;;3.38;2.15;;;7.60;99.90;;;;;;5053880;28;20232;-63
2022/02/06 05:51:52;;;;;;;2.78;1.80;;;7.60;99.90;;;;;;5053235;28;20240;-63
2022/02/06 05:54:19;;;;;;;3.78;1.85;;;7.60;99.90;;;;;;5045315;28;20248;-63
2022/02/06 05:56:47;;;;;;;6.82;2.08;;;7.70;99.90;;;;;;5053341;28;20240;-63
2022/02/06 05:59:14;;;;;;;2.25;2.10;;;7.60;99.90;;;;;;5053785;28;20282;-62
2022/02/06 06:01:44;;;;;;;4.00;3.35;;;7.60;99.90;;;;;;5053022;28;20228;-62
2022/02/06 06:04:12;;;;;;;3.30;2.33;;;7.70;99.90;;;;;;5051788;28;20225;-63
2022/02/06 06:06:39;;;;;;;5.93;2.55;;;7.70;99.90;;;;;;5053190;28;20252;-62
2022/02/06 06:09:06;;;;;;;1.70;1.60;;;7.70;99.90;;;;;;5053501;28;20308;-63
2022/02/06 06:11:33;;;;;;;5.75;2.30;;;7.80;99.90;;;;;;5051049;28;20228;-63
2022/02/06 06:14:00;;;;;;;3.00;2.15;;;7.80;99.90;;;;;;5050691;28;20304;-63
2022/02/06 06:16:27;;;;;;;2.38;2.00;;;7.80;99.90;;;;;;5052370;28;20225;-63
2022/02/06 06:18:54;;;;;;;4.25;2.80;;;7.80;99.90;;;;;;5052774;28;20312;-63
2022/02/06 06:21:25;;;;;;;4.20;2.13;;;7.80;99.90;;;;;;5053114;28;20229;-63
2022/02/06 06:23:53;;;;;;;4.35;2.10;;;7.80;99.90;;;;;;5052182;28;20706;-62
2022/02/06 06:26:22;;;;;;;2.83;2.00;;;7.80;99.90;;;;;;5053253;28;20296;-63
2022/02/06 06:28:49;;;;;;;2.15;1.80;;;7.70;99.90;;;;;;5052537;28;20227;-63
2022/02/06 06:31:16;;;;;;;2.92;1.92;;;7.70;99.90;;;;;;5053160;28;20233;-63
2022/02/06 06:33:43;;;;;;;3.20;2.90;;;7.60;99.90;;;;;;5052533;28;20225;-63
2022/02/06 06:36:09;;;;;;;2.03;1.65;;;7.70;99.90;;;;;;5053118;28;20229;-63
2022/02/06 06:38:38;;;;;;;3.30;1.83;;;7.80;99.90;;;;;;5040875;28;20221;-63
2022/02/06 06:41:05;;;;;;;4.25;1.65;;;7.80;99.90;;;;;;5044761;28;20257;-62
2022/02/06 06:43:32;;;;;;;1.88;1.67;;;7.80;99.90;;;;;;5047981;28;20229;-63
2022/02/06 06:45:59;;;;;;;3.47;2.03;;;7.80;99.90;;;;;;5052490;28;20229;-63
2022/02/06 06:48:26;;;;;;;2.95;1.75;;;7.70;99.90;;;;;;5052543;28;20229;-63
2022/02/06 06:50:53;;;;;;;2.17;1.98;;;7.80;99.90;;;;;;5052304;28;20233;-63
2022/02/06 06:53:20;;;;;;;2.33;2.15;;;7.80;99.90;;;;;;5044604;28;20232;-63
2022/02/06 06:55:55;;;;;;;2.30;2.10;;;7.80;99.90;;;;;;5052240;28;20237;-63
2022/02/06 06:58:27;;;;;;;3.17;2.65;;;7.70;99.90;;;;;;5052665;28;20243;-62
2022/02/06 07:01:08;;;;;;;7.25;4.95;;;7.80;99.90;;;;;;5052291;28;20249;-63
2022/02/06 07:03:35;;;;;;;4.43;2.35;;;7.80;99.90;;;;;;5050601;28;20237;-63
2022/02/06 07:06:03;;;;;;;6.20;3.75;;;7.80;99.90;;;;;;5052273;28;20663;-63
2022/02/06 07:08:30;;;;;;;7.32;4.72;;;7.90;99.90;;;;;;5052338;28;20349;-63
2022/02/06 07:10:58;;;;;;;2.63;2.42;;;7.80;99.90;;;;;;5048596;28;20476;-63
2022/02/06 07:13:25;;;;;;;2.88;2.10;;;7.90;99.90;;;;;;5048512;28;20229;-64
2022/02/06 07:15:54;;;;;;;4.63;2.42;;;8.00;99.90;;;;;;5044093;28;20225;-62
2022/02/06 07:18:21;;;;;;;4.60;1.92;;;8.00;99.90;;;;;;5052372;28;20586;-63
2022/02/06 07:20:49;;;;;;;3.95;1.95;;;8.00;99.90;;;;;;5046746;28;20243;-63
2022/02/06 07:23:16;;;;;;;2.08;1.88;;;8.00;99.90;;;;;;5049546;28;20304;-63
2022/02/06 07:25:47;;;;;;;3.72;1.70;;;8.00;99.90;;;;;;5052370;28;20688;-63
2022/02/06 07:28:17;;;;;;;2.70;2.20;;;8.00;99.90;;;;;;5052235;28;20229;-63
2022/02/06 07:30:45;;;;;;;2.45;1.90;;;8.00;99.90;;;;;;5052384;28;20229;-64
2022/02/06 07:33:14;;;;;;;1.70;1.60;;;8.00;99.90;;;;;;5051872;28;20225;-63
2022/02/06 07:35:41;;;;;;;1.38;1.27;;;8.00;99.90;;;;;;5055081;28;20232;-63
2022/02/06 07:38:08;;;;;;;3.40;1.95;;;8.10;99.90;;;;;;5052115;28;20225;-63
2022/02/06 07:40:35;;;;;;;3.17;2.40;;;8.10;99.90;;;;;;5056098;28;20225;-63
2022/02/06 07:43:01;;;;;;;1.75;1.30;;;8.10;99.90;;;;;;5055875;28;20574;-63
2022/02/06 07:45:31;;;;;;;5.15;2.83;;;8.20;99.90;;;;;;5056288;28;20327;-63
2022/02/06 07:47:58;;;;;;;1.67;1.40;;;8.20;99.90;;;;;;5055457;28;20225;-63
2022/02/06 07:50:25;;;;;;;5.05;2.88;;;8.10;99.90;;;;;;5056161;28;20229;-63
2022/02/06 07:52:52;;;;;;;3.15;1.52;;;8.20;99.90;;;;;;5055448;28;20217;-63
2022/02/06 07:55:19;;;;;;;2.20;1.20;;;8.10;99.90;;;;;;5055925;28;20225;-63
2022/02/06 07:57:47;;;;;;;3.88;1.80;;;8.10;99.90;;;;;;5042873;28;20244;-63
2022/02/06 08:00:15;;;;;;;2.05;1.73;;;8.10;99.90;;;;;;5055497;28;20652;-63
2022/02/06 08:02:43;;;;;;;2.25;2.03;;;8.20;99.90;;;;;;5054498;28;20653;-63
2022/02/06 08:05:11;;;;;;;4.47;1.00;;;8.20;99.90;;;;;;5043124;28;20313;-63
2022/02/06 08:07:39;;;;;;;2.38;1.45;;;8.20;99.90;;;;;;5055873;28;20315;-63
2022/02/06 08:10:07;;;;;;;1.52;1.42;;;8.20;99.90;;;;;;5055254;28;20229;-63
2022/02/06 08:12:40;;;;;;;1.65;1.55;;;8.10;99.90;;;;;;5046785;28;20241;-63
2022/02/06 08:15:08;;;;;;;2.75;1.15;;;8.20;99.90;;;;;;5055036;28;20236;-63
2022/02/06 08:17:36;;;;;;;2.30;1.92;;;8.20;99.90;;;;;;5055670;28;20229;-62
2022/02/06 08:20:07;;;;;;;1.83;1.38;;;8.20;99.90;;;;;;5055087;28;20571;-63
2022/02/06 08:22:34;;;;;;;2.00;1.10;;;8.20;99.90;;;;;;5047121;28;20221;-63
2022/02/06 08:25:02;;;;;;;4.85;1.65;;;8.10;99.90;;;;;;5055085;28;20221;-63
2022/02/06 08:27:29;;;;;;;2.00;1.48;;;8.10;99.90;;;;;;5055497;28;20225;-63
2022/02/06 08:29:58;;;;;;;2.15;1.25;;;8.00;99.90;;;;;;5054900;28;20226;-63
2022/02/06 08:32:26;;;;;;;2.90;1.17;;;8.10;99.90;;;;;;5055240;28;20236;-63
2022/02/06 08:34:54;;;;;;;4.55;1.20;;;8.10;99.90;;;;;;5055193;28;20225;-62
2022/02/06 08:37:23;;;;;;;1.63;1.40;;;8.10;99.90;;;;;;5052229;28;20249;-62
2022/02/06 08:39:50;;;;;;;1.60;1.50;;;8.10;99.90;;;;;;5042035;28;20221;-63
2022/02/06 08:42:17;;;;;;;2.60;1.27;;;8.10;99.90;;;;;;5054665;28;20233;-63
2022/02/06 08:44:47;;;;;;;6.25;2.00;;;8.10;99.90;;;;;;5055274;28;20225;-63
2022/02/06 08:47:19;;;;;;;8.18;6.07;;;8.10;99.90;;;;;;5054188;28;20233;-63
2022/02/06 08:49:47;;;;;;;3.45;3.05;;;8.20;99.90;;;;;;5055125;28;20228;-63
2022/02/06 08:52:14;;;;;;;4.22;3.40;;;8.20;99.90;;;;;;5054253;28;20229;-63
2022/02/06 08:54:44;;;;;;;7.23;4.47;;;8.30;99.90;;;;;;5054834;28;20225;-63
2022/02/06 08:57:19;;;;;;;3.20;2.33;;;8.30;99.90;;;;;;5054444;28;20792;-63
2022/02/06 08:59:46;;;;;;;2.15;1.30;;;8.40;99.90;;;;;;5054797;28;20221;-63
2022/02/06 09:02:13;;;;;;;3.58;1.75;;;8.50;99.90;;;;;;5054407;28;20225;-63
2022/02/06 09:04:40;;;;;;;3.78;2.10;;;8.40;99.90;;;;;;5052781;28;20240;-63
2022/02/06 09:07:08;;;;;;;1.95;1.20;;;8.60;99.90;;;;;;5054327;28;20225;-63
2022/02/06 09:09:36;;;;;;;3.15;1.48;;;8.60;99.90;;;;;;5054868;28;20248;-63
2022/02/06 09:12:05;;;;;;;2.53;1.10;;;8.70;99.90;;;;;;5053179;28;20217;-63
2022/02/06 09:14:35;;;;;;;3.75;1.90;;;8.70;99.90;;;;;;5054261;28;20300;-64
2022/02/06 09:17:01;;;;;;;5.03;1.80;;;8.70;99.90;;;;;;5054099;28;20232;-62
2022/02/06 09:19:28;;;;;;;3.08;2.10;;;8.80;99.90;;;;;;5054498;28;20229;-63
2022/02/06 09:21:55;;;;;;;1.80;1.58;;;8.80;99.90;;;;;;5054051;28;20229;-62
2022/02/06 09:24:22;;;;;;;6.95;3.70;;;8.80;99.90;;;;;;5053956;28;20229;-62
2022/02/06 09:26:49;;;;;;;4.13;3.47;;;8.90;99.90;;;;;;5041189;28;20224;-62
2022/02/06 09:29:18;;;;;;;3.10;2.08;;;8.90;99.90;;;;;;5053841;28;20231;-63
2022/02/06 09:31:50;;;;;;;2.10;1.67;;;9.00;99.90;;;;;;5054170;28;20227;-63
2022/02/06 09:36:43;;;;;;;5.83;5.17;;;9.00;99.90;;;;;;5054159;28;20240;-63
2022/02/06 09:39:11;;;;;;;6.20;4.30;;;9.00;99.90;;;;;;5050880;28;20240;-63
2022/02/06 09:41:42;;;;;;;4.47;3.85;;;9.10;99.90;;;;;;5054053;28;20679;-63
2022/02/06 09:44:11;;;;;;;4.68;3.38;;;9.10;99.90;;;;;;5053463;28;20229;-63
2022/02/06 09:46:40;;;;;;;2.78;2.42;;;9.10;99.90;;;;;;5053880;28;20233;-64
2022/02/06 09:49:08;;;;;;;2.05;1.85;;;9.10;99.90;;;;;;5053372;28;20225;-63
2022/02/06 09:51:36;;;;;;;1.65;1.48;;;9.20;99.90;;;;;;5053669;28;20256;-63
2022/02/06 09:54:03;;;;;;;5.28;1.45;;;9.10;99.90;;;;;;5053127;28;20232;-64
2022/02/06 09:56:33;;;;;;;2.80;1.35;;;9.10;99.90;;;;;;5053347;28;20312;-63
2022/02/06 09:59:03;;;;;;;5.32;2.47;;;9.10;99.90;;;;;;5053188;28;20228;-63
2022/02/06 10:01:34;;;;;;;5.22;2.35;;;9.10;99.90;;;;;;5053377;28;20225;-63
2022/02/06 10:04:11;;;;;;;5.50;2.85;;;9.10;99.90;;;;;;5051767;28;20229;-63
2022/02/06 10:06:57;;;;;;;5.53;3.92;;;9.10;99.90;;;;;;5040847;28;20225;-63
2022/02/06 10:09:31;;;;;;;4.53;2.53;;;9.00;99.90;;;;;;5053068;28;20235;-63
2022/02/06 10:11:59;;;;;;;7.80;4.60;;;9.00;99.90;;;;;;5052918;28;20225;-63
2022/02/06 10:14:28;;;;;;;3.60;2.58;;;9.10;99.90;;;;;;5052652;28;20238;-62
2022/02/06 10:16:55;;;;;;;3.97;1.40;;;9.10;99.90;;;;;;5053533;28;20229;-64
2022/02/06 10:19:25;;;;;;;4.03;1.90;;;9.10;99.90;;;;;;5052548;28;20233;-63
2022/02/06 10:21:51;;;;;;;2.85;1.60;;;9.20;99.90;;;;;;5052090;28;20552;-63
2022/02/06 10:24:24;;;;;;;2.78;2.20;;;9.40;99.90;;;;;;5050835;28;20248;-62
2022/02/06 10:27:04;;;;;;;1.60;1.50;;;9.30;99.90;;;;;;5053030;28;20251;-63
2022/02/06 10:29:39;;;;;;;2.40;1.30;;;9.40;99.90;;;;;;5052704;28;20696;-62
2022/02/06 10:32:08;;;;;;;2.20;1.70;;;9.50;99.90;;;;;;5053253;28;20271;-63
2022/02/06 10:34:38;;;;;;;3.67;2.70;;;9.50;99.90;;;;;;5052714;28;20249;-62
2022/02/06 10:37:17;;;;;;;4.10;2.10;;;9.50;99.90;;;;;;5052682;28;20224;-63
2022/02/06 10:39:59;;;;;;;8.65;6.45;;;9.60;99.90;;;;;;5032507;28;20300;-63
2022/02/06 10:42:28;;;;;;;2.90;2.50;;;9.70;99.90;;;;;;5032602;28;20692;-62
2022/02/06 10:45:14;;;;;;;1.80;1.70;;;9.70;99.90;;;;;;5033038;28;20234;-63
2022/02/06 10:47:41;;;;;;;2.00;1.20;;;9.80;99.90;;;;;;5032730;28;20221;-63
2022/02/06 10:50:12;;;;;;;1.77;1.25;;;9.80;99.90;;;;;;5070755;28;20230;-62
2022/02/06 10:52:39;;;;;;;1.75;1.50;;;9.80;99.90;;;;;;5047243;28;20222;-64
2022/02/06 10:55:07;;;;;;;9.25;6.63;;;9.80;99.90;;;;;;5032182;28;20218;-63
2022/02/06 10:57:36;;;;;;;5.35;4.20;;;9.80;99.90;;;;;;5031462;28;20237;-63
2022/02/06 11:00:05;;;;;;;2.58;1.70;;;9.90;99.90;;;;;;5031739;28;20225;-62
2022/02/06 11:02:35;;;;;;;2.20;1.52;;;9.90;99.90;;;;;;5031518;28;20434;-63
2022/02/06 11:05:08;;;;;;;2.60;2.00;;;9.90;99.90;;;;;;5041498;28;20222;-63
2022/02/06 11:07:36;;;;;;;1.40;1.30;;;9.90;99.90;;;;;;5032313;28;20230;-62
2022/02/06 11:10:12;;;;;;;2.65;1.77;;;9.90;99.90;;;;;;5032535;28;20313;-63
2022/02/06 11:12:41;;;;;;;1.48;1.38;;;9.90;99.90;;;;;;5032135;28;20264;-64
2022/02/06 11:15:25;;;;;;;3.35;1.40;;;9.90;99.90;;;;;;5044254;28;20217;-63
2022/02/06 11:18:11;;;;;;;3.85;2.65;;;9.90;99.90;;;;;;5051044;28;20970;-63
2022/02/06 11:20:39;;;;;;;3.08;1.65;;;9.80;99.90;;;;;;5052032;28;20239;-63
2022/02/06 11:23:07;;;;;;;6.47;4.75;;;9.80;99.90;;;;;;5052577;28;20225;-63
2022/02/06 11:25:35;;;;;;;6.03;4.78;;;9.70;99.90;;;;;;5052042;28;20221;-62
2022/02/06 11:28:06;;;;;;;2.38;1.80;;;9.70;99.90;;;;;;5052500;28;20235;-62
2022/02/06 11:30:33;;;;;;;1.70;1.60;;;9.70;99.90;;;;;;5051853;28;20244;-62
2022/02/06 11:33:00;;;;;;;2.63;2.40;;;9.70;99.90;;;;;;5052691;28;20225;-62
2022/02/06 11:35:29;;;;;;;4.18;2.97;;;9.80;99.90;;;;;;5052563;28;20239;-62
2022/02/06 11:43:55;;;;;;;2.22;1.70;;;9.80;99.90;;;;;;5052069;28;20282;-63
2022/02/06 11:46:29;;;;;;;4.05;1.40;;;9.80;99.90;;;;;;5052204;28;20248;-64
2022/02/06 11:49:05;;;;;;;3.55;1.50;;;9.90;99.90;;;;;;5051874;28;20224;-63
2022/02/06 11:51:32;;;;;;;1.13;1.02;;;9.80;99.90;;;;;;5052150;28;20275;-63
2022/02/06 11:53:59;;;;;;;1.55;1.30;;;9.80;99.90;;;;;;5051942;28;20225;-63
2022/02/06 11:56:36;;;;;;;7.13;4.40;;;9.90;99.90;;;;;;5052088;28;20229;-63
2022/02/06 11:59:07;;;;;;;2.67;2.47;;;9.90;99.90;;;;;;5052042;28;20436;-63
2022/02/06 12:01:34;;;;;;;2.33;1.70;;;9.90;99.90;;;;;;5052230;28;20229;-63
2022/02/06 12:04:05;;;;;;;1.70;1.45;;;10.00;99.90;;;;;;5050097;28;20545;-63
2022/02/06 12:06:51;;;;;;;1.55;1.45;;;9.90;99.90;;;;;;5032273;28;20228;-63
2022/02/06 12:09:21;;;;;;;2.28;1.40;;;10.00;99.90;;;;;;5032639;28;20225;-63
2022/02/06 12:12:23;;;;;;;1.77;1.30;;;10.00;99.90;;;;;;5032148;28;20221;-63
2022/02/06 12:15:19;;;;;;;1.60;1.40;;;10.10;99.90;;;;;;5040991;28;20216;-63
2022/02/06 12:18:24;;;;;;;4.25;3.70;;;10.00;99.90;;;;;;5051646;28;20598;-63
2022/02/06 12:20:54;;;;;;;5.38;4.55;;;10.10;99.90;;;;;;4991818;28;21017;-64
2022/02/06 12:23:43;;;;;;;2.63;1.80;;;10.10;99.90;;;;;;5045631;28;20286;-63
2022/02/06 12:26:43;;;;;;;2.47;1.70;;;10.00;99.90;;;;;;5066971;28;20216;-63
2022/02/06 12:29:16;;;;;;;2.05;1.40;;;10.00;99.90;;;;;;5055180;28;20418;-63
2022/02/06 12:31:53;;;;;;;1.35;1.23;;;10.10;99.90;;;;;;5035542;28;20229;-63
2022/02/06 12:37:27;;;;;;;3.25;1.88;;;10.10;99.90;;;;;;5012498;28;20229;-63
2022/02/06 12:39:56;;;;;;;4.63;3.42;;;10.10;99.90;;;;;;5035388;28;20249;-64
2022/02/06 12:42:31;;;;;;;3.75;3.10;;;10.10;99.90;;;;;;5034838;28;20229;-63
2022/02/06 12:45:01;;;;;;;8.70;6.20;;;10.20;99.90;;;;;;5035381;28;20272;-63
2022/02/06 12:47:30;;;;;;;6.18;4.80;;;10.20;99.90;;;;;;5034898;28;20222;-62
2022/02/06 12:49:58;;;;;;;4.18;3.83;;;10.20;99.90;;;;;;5035020;28;20229;-62
2022/02/06 12:52:25;;;;;;;3.30;1.40;;;10.20;99.90;;;;;;5048701;28;20718;-62
2022/02/06 12:54:52;;;;;;;1.40;1.30;;;10.20;99.90;;;;;;5055160;28;20221;-62
2022/02/06 12:57:20;;;;;;;2.25;1.10;;;10.20;99.90;;;;;;5054682;28;20596;-62
2022/02/06 12:59:49;;;;;;;2.25;2.03;;;10.10;99.90;;;;;;5054971;28;20228;-63
2022/02/06 13:02:23;;;;;;;2.25;1.65;;;10.10;99.90;;;;;;5053856;28;20228;-63
2022/02/06 13:05:14;;;;;;;5.00;1.40;;;10.20;99.90;;;;;;5046684;28;20239;-62
2022/02/06 13:07:45;;;;;;;2.05;1.33;;;10.20;99.90;;;;;;5038424;28;20275;-62
2022/02/06 13:10:14;;;;;;;1.30;1.20;;;10.10;99.90;;;;;;5034819;28;20222;-62
2022/02/06 13:12:47;;;;;;;1.38;1.27;;;10.10;99.90;;;;;;5041059;28;20225;-63
2022/02/06 13:18:13;;;;;;;1.15;1.05;;;10.10;99.90;;;;;;5026041;28;20287;-63
2022/02/06 13:20:58;;;;;;;5.38;3.90;;;10.10;99.90;;;;;;5041913;28;20221;-63
2022/02/06 13:23:41;;;;;;;3.83;3.33;;;10.10;99.90;;;;;;5054570;28;20228;-64
2022/02/06 13:26:15;;;;;;;4.20;1.63;;;10.10;99.90;;;;;;5054392;28;20983;-63
2022/02/06 13:28:51;;;;;;;1.20;1.10;;;10.10;99.90;;;;;;5054195;28;20216;-63
2022/02/06 13:31:34;;;;;;;1.30;1.20;;;10.10;99.90;;;;;;5054015;28;20252;-63
2022/02/06 13:34:15;;;;;;;1.02;0.90;;;10.10;99.90;;;;;;5053134;28;20278;-62
2022/02/06 13:36:53;;;;;;;2.08;1.33;;;10.10;99.90;;;;;;5053280;28;20260;-62
2022/02/06 13:39:34;;;;;;;1.30;1.20;;;10.10;99.90;;;;;;5033579;28;20221;-62
2022/02/06 13:42:11;;;;;;;1.10;1.00;;;10.00;99.90;;;;;;5033843;28;20257;-61
2022/02/06 13:44:38;;;;;;;1.10;0.93;;;9.90;99.90;;;;;;5034052;28;20702;-62
2022/02/06 13:47:05;;;;;;;3.90;1.10;;;9.90;99.90;;;;;;5050720;28;20552;-62
2022/02/06 13:49:40;;;;;;;4.47;3.13;;;9.90;99.90;;;;;;5054133;28;20689;-62
2022/02/06 13:52:08;;;;;;;3.30;3.00;;;9.90;99.90;;;;;;5053711;28;20286;-62
2022/02/06 13:54:38;;;;;;;3.78;2.30;;;9.80;99.90;;;;;;5053745;28;20230;-63
2022/02/06 13:57:07;;;;;;;3.10;2.03;;;9.80;99.90;;;;;;5053484;28;20229;-63
2022/02/06 13:59:38;;;;;;;2.10;1.90;;;9.80;99.90;;;;;;5053263;28;20229;-63
2022/02/06 14:02:07;;;;;;;2.20;1.50;;;9.70;99.90;;;;;;5044996;28;20245;-63
2022/02/06 14:04:38;;;;;;;5.35;4.10;;;9.70;99.90;;;;;;5033768;28;20412;-62
2022/02/06 14:07:06;;;;;;;1.05;0.90;;;9.70;99.90;;;;;;5033302;28;20681;-64
2022/02/06 14:09:47;;;;;;;0.98;0.85;;;9.70;99.90;;;;;;5034494;28;20299;-63
2022/02/06 14:12:16;;;;;;;0.60;0.60;;;9.60;99.90;;;;;;5044320;28;20375;-63
2022/02/06 14:14:51;;;;;;;3.20;1.25;;;9.60;99.90;;;;;;5053331;28;20239;-64
2022/02/06 14:17:19;;;;;;;1.83;1.50;;;9.50;99.90;;;;;;5053110;28;20224;-62
2022/02/06 14:19:48;;;;;;;1.50;1.20;;;9.50;99.90;;;;;;5053348;28;20213;-62
2022/02/06 14:22:27;;;;;;;5.93;4.35;;;9.50;99.90;;;;;;5042737;28;20775;-62
2022/02/06 14:24:56;;;;;;;3.00;2.40;;;9.50;99.90;;;;;;5033538;28;20237;-63
2022/02/06 14:27:35;;;;;;;4.88;2.50;;;9.40;99.90;;;;;;5033012;28;20226;-63
2022/02/06 14:30:22;;;;;;;1.13;1.02;;;9.40;99.90;;;;;;5034313;28;20268;-63
2022/02/06 14:32:58;;;;;;;1.90;1.25;;;9.30;99.90;;;;;;5053098;28;20236;-63
2022/02/06 14:35:41;;;;;;;1.85;1.20;;;9.40;99.90;;;;;;5051710;28;20348;-63
2022/02/06 14:38:12;;;;;;;3.08;2.30;;;9.20;99.90;;;;;;5032909;28;20753;-63
2022/02/06 14:40:50;;;;;;;7.45;5.07;;;9.20;99.90;;;;;;5033133;28;20567;-63